
Distance (Route):
Temperature : 23.1°C
Humidity : 32.1%
Pressure : 0hPa| Receiver | Date | Latitude | Longitude | Direction | Speed | Altitude | Climb | Temperature | Humidity | Pressure | Voltage | Killtimer | Uptime | BKT | XDATA |
|---|---|---|---|---|---|---|---|---|---|---|---|---|---|---|---|
| LZ4TU-5 | 2026-09-03 18:52:46 | 43.94721 | 23.01656 | 154° | 40km/h | 893m | -12.4m/s | 23.1°C | 32.1% | 0hPa | 0V | 00:00:00 | 00:00:00 | 00:00:00 | |
| LZ4TU-5 | 2026-09-03 18:52:41 | 43.94766 | 23.01623 | 153° | 38km/h | 955m | -12.6m/s | 22.6°C | 32.4% | 0hPa | 0V | 00:00:00 | 00:00:00 | 00:00:00 | |
| LZ4TU-5 | 2026-09-03 18:52:36 | 43.94808 | 23.01590 | 152° | 38km/h | 1017m | -12.6m/s | 22.0°C | 32.6% | 0hPa | 0V | 00:00:00 | 00:00:00 | 00:00:00 | |
| LZ4TU-5 | 2026-09-03 18:52:31 | 43.94847 | 23.01558 | 151° | 37km/h | 1083m | -12.5m/s | 21.5°C | 33.0% | 0hPa | 0V | 00:00:00 | 00:00:00 | 00:00:00 | |
| LZ4TU-5 | 2026-09-03 18:52:27 | 43.94881 | 23.01534 | 152° | 37km/h | 1134m | -12.5m/s | 21.0°C | 33.5% | 0hPa | 0V | 00:00:00 | 00:00:00 | 00:00:00 | |
| LZ4TU-5 | 2026-09-03 18:52:23 | 43.94913 | 23.01508 | 149° | 37km/h | 1182m | -12.5m/s | 20.6°C | 34.2% | 0hPa | 0V | 00:00:00 | 00:00:00 | 00:00:00 | |
| LZ4TU-5 | 2026-09-03 18:52:18 | 43.94951 | 23.01474 | 149° | 37km/h | 1234m | -12.4m/s | 20.0°C | 34.9% | 0hPa | 0V | 00:00:00 | 00:00:00 | 00:00:00 | |
| LZ4TU-5 | 2026-09-03 18:52:13 | 43.94989 | 23.01441 | 149° | 35km/h | 1297m | -12.1m/s | 19.4°C | 35.6% | 0hPa | 0V | 00:00:00 | 00:00:00 | 00:00:00 | |
| LZ4TU-5 | 2026-09-03 18:52:09 | 43.95018 | 23.01415 | 149° | 35km/h | 1347m | -12.1m/s | 18.9°C | 36.1% | 0hPa | 0V | 00:00:00 | 00:00:00 | 00:00:00 | |
| LZ4TU-5 | 2026-09-03 18:52:04 | 43.95054 | 23.01383 | 147° | 33km/h | 1410m | -12.2m/s | 18.3°C | 36.7% | 0hPa | 0V | 00:00:00 | 00:00:00 | 00:00:00 | |
| LZ4TU-5 | 2026-09-03 18:52:00 | 43.95082 | 23.01358 | 148° | 33km/h | 1460m | -12.2m/s | 17.9°C | 37.3% | 0hPa | 0V | 00:00:00 | 00:00:00 | 00:00:00 | |
| LZ4TU-5 | 2026-09-03 18:51:56 | 43.95110 | 23.01337 | 150° | 29km/h | 1506m | -11.6m/s | 17.5°C | 37.6% | 0hPa | 0V | 00:00:00 | 00:00:00 | 00:00:00 | |
| LZ4TU-5 | 2026-09-03 18:51:51 | 43.95139 | 23.01307 | 147° | 27km/h | 1559m | -11.9m/s | 17.0°C | 38.3% | 0hPa | 0V | 00:00:00 | 00:00:00 | 00:00:00 | |
| LZ4TU-5 | 2026-09-03 18:51:46 | 43.95164 | 23.01283 | 149° | 20km/h | 1624m | -12.9m/s | 16.4°C | 39.2% | 0hPa | 0V | 00:00:00 | 00:00:00 | 00:00:00 | |
| LZ4TU-5 | 2026-09-03 18:51:42 | 43.95182 | 23.01269 | 154° | 18km/h | 1678m | -12.9m/s | 16.0°C | 39.5% | 0hPa | 0V | 00:00:00 | 00:00:00 | 00:00:00 | |
| LZ4TU-5 | 2026-09-03 18:51:37 | 43.95202 | 23.01253 | 152° | 18km/h | 1747m | -13.1m/s | 15.5°C | 40.2% | 0hPa | 0V | 00:00:00 | 00:00:00 | 00:00:00 | |
| LZ4TU-5 | 2026-09-03 18:51:33 | 43.95219 | 23.01242 | 149° | 16km/h | 1800m | -13.0m/s | 15.0°C | 41.2% | 0hPa | 0V | 00:00:00 | 00:00:00 | 00:00:00 | |
| LZ4TU-5 | 2026-09-03 18:51:29 | 43.95233 | 23.01230 | 151° | 15km/h | 1841m | -13.3m/s | 14.5°C | 42.3% | 0hPa | 0V | 00:00:00 | 00:00:00 | 00:00:00 | |
| LZ4TU-5 | 2026-09-03 18:51:24 | 43.95248 | 23.01219 | 153° | 13km/h | 1910m | -12.8m/s | 13.9°C | 43.4% | 0hPa | 0V | 00:00:00 | 00:00:00 | 00:00:00 | |
| LZ4TU-5 | 2026-09-03 18:51:19 | 43.95263 | 23.01208 | 151° | 11km/h | 1977m | -12.9m/s | 13.2°C | 44.5% | 0hPa | 0V | 00:00:00 | 00:00:00 | 00:00:00 | |
| LZ4TU-5 | 2026-09-03 18:51:14 | 43.95278 | 23.01197 | 160° | 11km/h | 2044m | -12.5m/s | 12.6°C | 45.9% | 0hPa | 0V | 00:00:00 | 00:00:00 | 00:00:00 | |
| LZ4TU-5 | 2026-09-03 18:51:09 | 43.95291 | 23.01192 | 166° | 11km/h | 2109m | -12.7m/s | 12.0°C | 47.0% | 0hPa | 0V | 00:00:00 | 00:00:00 | 00:00:00 | |
| LZ4TU-5 | 2026-09-03 18:51:04 | 43.95301 | 23.01183 | 149° | 11km/h | 2168m | -12.5m/s | 11.4°C | 48.1% | 0hPa | 0V | 00:00:00 | 00:00:00 | 00:00:00 | |
| LZ4TU-5 | 2026-09-03 18:50:59 | 43.95309 | 23.01175 | 135° | 9km/h | 2225m | -12.6m/s | 10.8°C | 49.8% | 0hPa | 0V | 00:00:00 | 00:00:00 | 00:00:00 | |
| LZ4TU-5 | 2026-09-03 18:50:54 | 43.95317 | 23.01164 | 129° | 7km/h | 2291m | -13.4m/s | 10.3°C | 52.9% | 0hPa | 0V | 00:00:00 | 00:00:00 | 00:00:00 | |
| LZ4TU-5 | 2026-09-03 18:50:50 | 43.95321 | 23.01155 | 122° | 7km/h | 2348m | -13.5m/s | 9.7°C | 54.4% | 0hPa | 0V | 00:00:00 | 00:00:00 | 00:00:00 | |
| LZ4TU-5 | 2026-09-03 18:50:45 | 43.95325 | 23.01147 | 122° | 9km/h | 2418m | -13.5m/s | 9.1°C | 56.6% | 0hPa | 0V | 00:00:00 | 00:00:00 | 00:00:00 | |
| LZ4TU-5 | 2026-09-03 18:50:41 | 43.95330 | 23.01136 | 116° | 7km/h | 2473m | -13.8m/s | 8.6°C | 58.3% | 0hPa | 0V | 00:00:00 | 00:00:00 | 00:00:00 | |
| LZ4TU-5 | 2026-09-03 18:50:36 | 43.95333 | 23.01123 | 121° | 7km/h | 2534m | -14.5m/s | 7.9°C | 60.4% | 0hPa | 0V | 00:00:00 | 00:00:00 | 00:00:00 | |
| LZ4TU-5 | 2026-09-03 18:50:31 | 43.95336 | 23.01110 | 116° | 7km/h | 2609m | -14.1m/s | 7.3°C | 62.0% | 0hPa | 0V | 00:00:00 | 00:00:00 | 00:00:00 | |
| LZ4TU-5 | 2026-09-03 18:50:26 | 43.95341 | 23.01095 | 107° | 9km/h | 2683m | -14.3m/s | 6.6°C | 62.7% | 0hPa | 0V | 00:00:00 | 00:00:00 | 00:00:00 | |
| LZ4TU-5 | 2026-09-03 18:50:21 | 43.95344 | 23.01079 | 101° | 9km/h | 2754m | -13.1m/s | 6.0°C | 63.8% | 0hPa | 0V | 00:00:00 | 00:00:00 | 00:00:00 | |
| LZ4TU-5 | 2026-09-03 18:50:16 | 43.95348 | 23.01065 | 101° | 11km/h | 2819m | -14.1m/s | 5.4°C | 64.7% | 0hPa | 0V | 00:00:00 | 00:00:00 | 00:00:00 | |
| LZ4TU-5 | 2026-09-03 18:50:12 | 43.95349 | 23.01049 | 110° | 11km/h | 2868m | -14.1m/s | 4.9°C | 64.4% | 0hPa | 0V | 00:00:00 | 00:00:00 | 00:00:00 | |
| LZ4TU-5 | 2026-09-03 18:50:07 | 43.95355 | 23.01032 | 127° | 11km/h | 2941m | -14.2m/s | 4.4°C | 64.5% | 0hPa | 0V | 00:00:00 | 00:00:00 | 00:00:00 | |
| LZ4TU-5 | 2026-09-03 18:50:03 | 43.95361 | 23.01021 | 136° | 11km/h | 3000m | -14.6m/s | 4.0°C | 61.9% | 0hPa | 0V | 00:00:00 | 00:00:00 | 00:00:00 | |
| LZ4TU-5 | 2026-09-03 18:49:58 | 43.95373 | 23.01007 | 143° | 13km/h | 3075m | -14.3m/s | 3.7°C | 56.7% | 0hPa | 0V | 00:00:00 | 00:00:00 | 00:00:00 | |
| LZ4TU-5 | 2026-09-03 18:49:53 | 43.95388 | 23.00992 | 151° | 13km/h | 3149m | -14.4m/s | 3.4°C | 51.7% | 0hPa | 0V | 00:00:00 | 00:00:00 | 00:00:00 | |
| LZ4TU-5 | 2026-09-03 18:49:48 | 43.95402 | 23.00983 | 162° | 13km/h | 3214m | -15.0m/s | 2.9°C | 50.7% | 0hPa | 0V | 00:00:00 | 00:00:00 | 00:00:00 | |
| LZ4TU-5 | 2026-09-03 18:49:44 | 43.95415 | 23.00978 | 165° | 15km/h | 3276m | -15.2m/s | 2.6°C | 45.2% | 0hPa | 0V | 00:00:00 | 00:00:00 | 00:00:00 | |
| LZ4TU-5 | 2026-09-03 18:49:39 | 43.95432 | 23.00973 | 167° | 15km/h | 3354m | -14.8m/s | 2.1°C | 40.8% | 0hPa | 0V | 00:00:00 | 00:00:00 | 00:00:00 | |
| LZ4TU-5 | 2026-09-03 18:49:35 | 43.95447 | 23.00967 | 165° | 15km/h | 3416m | -14.9m/s | 1.8°C | 36.9% | 0hPa | 0V | 00:00:00 | 00:00:00 | 00:00:00 | |
| LZ4TU-5 | 2026-09-03 18:49:30 | 43.95467 | 23.00958 | 157° | 20km/h | 3489m | -14.7m/s | 1.3°C | 40.3% | 0hPa | 0V | 00:00:00 | 00:00:00 | 00:00:00 | |
| LZ4TU-5 | 2026-09-03 18:49:25 | 43.95492 | 23.00941 | 152° | 26km/h | 3560m | -15.1m/s | 0.9°C | 44.8% | 0hPa | 0V | 00:00:00 | 00:00:00 | 00:00:00 | |
| LZ4TU-5 | 2026-09-03 18:49:20 | 43.95521 | 23.00920 | 152° | 26km/h | 3640m | -15.2m/s | 0.3°C | 49.1% | 0hPa | 0V | 00:00:00 | 00:00:00 | 00:00:00 | |
| LZ4TU-5 | 2026-09-03 18:49:15 | 43.95550 | 23.00898 | 151° | 26km/h | 3718m | -15.2m/s | -0.4°C | 51.2% | 0hPa | 0V | 00:00:00 | 00:00:00 | 00:00:00 | |
| LZ4TU-5 | 2026-09-03 18:49:10 | 43.95576 | 23.00875 | 150° | 26km/h | 3788m | -16.1m/s | -1.1°C | 55.0% | 0hPa | 0V | 00:00:00 | 00:00:00 | 00:00:00 | |
| LZ4TU-5 | 2026-09-03 18:49:05 | 43.95603 | 23.00851 | 145° | 24km/h | 3867m | -15.1m/s | -1.5°C | 53.6% | 0hPa | 0V | 00:00:00 | 00:00:00 | 00:00:00 | |
| LZ4TU-5 | 2026-09-03 18:49:00 | 43.95627 | 23.00827 | 141° | 22km/h | 3942m | -14.9m/s | -2.0°C | 53.9% | 0hPa | 0V | 00:00:00 | 00:00:00 | 00:00:00 | |
| LZ4TU-5 | 2026-09-03 18:48:55 | 43.95647 | 23.00799 | 133° | 22km/h | 4007m | -14.2m/s | -2.4°C | 53.6% | 0hPa | 0V | 00:00:00 | 00:00:00 | 00:00:00 | |
| LZ4TU-5 | 2026-09-03 18:48:50 | 43.95662 | 23.00770 | 121° | 20km/h | 4085m | -14.6m/s | -2.7°C | 51.5% | 0hPa | 0V | 00:00:00 | 00:00:00 | 00:00:00 | |
| LZ4TU-5 | 2026-09-03 18:48:46 | 43.95673 | 23.00744 | 120° | 22km/h | 4146m | -14.9m/s | -3.1°C | 53.7% | 0hPa | 0V | 00:00:00 | 00:00:00 | 00:00:00 | |
| LZ4TU-5 | 2026-09-03 18:48:42 | 43.95684 | 23.00718 | 123° | 22km/h | 4209m | -15.2m/s | -3.6°C | 57.3% | 0hPa | 0V | 00:00:00 | 00:00:00 | 00:00:00 | |
| LZ4TU-5 | 2026-09-03 18:48:37 | 43.95700 | 23.00685 | 125° | 24km/h | 4287m | -16.1m/s | -4.2°C | 58.4% | 0hPa | 0V | 00:00:00 | 00:00:00 | 00:00:00 | |
| LZ4TU-5 | 2026-09-03 18:48:32 | 43.95716 | 23.00650 | 127° | 26km/h | 4362m | -15.0m/s | -4.7°C | 0% | 0hPa | 0V | 00:00:00 | 00:00:00 | 00:00:00 | |
| LZ4TU-5 | 2026-09-03 18:48:27 | 43.95736 | 23.00609 | 120° | 27km/h | 4431m | -15.7m/s | -5.3°C | 59.3% | 0hPa | 0V | 00:00:00 | 00:00:00 | 00:00:00 | |
| LZ4TU-5 | 2026-09-03 18:48:22 | 43.95751 | 23.00568 | 119° | 26km/h | 4509m | -14.5m/s | -5.8°C | 57.9% | 0hPa | 0V | 00:00:00 | 00:00:00 | 00:00:00 | |
| LZ4TU-5 | 2026-09-03 18:48:17 | 43.95768 | 23.00527 | 123° | 27km/h | 4588m | -15.9m/s | -6.6°C | 57.2% | 0hPa | 0V | 00:00:00 | 00:00:00 | 00:00:00 | |
| LZ4TU-5 | 2026-09-03 18:48:12 | 43.95787 | 23.00486 | 127° | 27km/h | 4660m | -15.4m/s | -6.9°C | 53.0% | 0hPa | 0V | 00:00:00 | 00:00:00 | 00:00:00 | |
| LZ4TU-5 | 2026-09-03 18:48:08 | 43.95804 | 23.00457 | 130° | 27km/h | 4720m | -15.2m/s | -7.1°C | 50.8% | 0hPa | 0V | 00:00:00 | 00:00:00 | 00:00:00 | |
| LZ4TU-5 | 2026-09-03 18:48:04 | 43.95821 | 23.00427 | 130° | 27km/h | 4784m | -15.3m/s | -7.6°C | 60.9% | 0hPa | 0V | 00:00:00 | 00:00:00 | 00:00:00 | |
| LZ4TU-5 | 2026-09-03 18:48:00 | 43.95839 | 23.00395 | 125° | 29km/h | 4847m | -15.3m/s | -8.0°C | 60.8% | 0hPa | 0V | 00:00:00 | 00:00:00 | 00:00:00 | |
| LZ4TU-5 | 2026-09-03 18:47:55 | 43.95860 | 23.00349 | 124° | 31km/h | 4926m | -15.4m/s | -8.4°C | 53.4% | 0hPa | 0V | 00:00:00 | 00:00:00 | 00:00:00 | |
| LZ4TU-5 | 2026-09-03 18:47:50 | 43.95884 | 23.00305 | 130° | 31km/h | 5007m | -15.8m/s | -8.6°C | 55.9% | 0hPa | 0V | 00:00:00 | 00:00:00 | 00:00:00 | |
| LZ4TU-5 | 2026-09-03 18:46:32 | 43.96380 | 22.99563 | 130° | 38km/h | 6254m | -16.9m/s | -17.2°C | 44.3% | 0hPa | 0V | 00:00:00 | 00:00:00 | 00:00:00 | |
| LZ4TU-5 | 2026-09-03 18:46:27 | 43.96411 | 22.99510 | 130° | 40km/h | 6340m | -16.5m/s | -17.5°C | 0% | 0hPa | 0V | 00:00:00 | 00:00:00 | 00:00:00 | |
| LZ4TU-5 | 2026-09-03 18:45:13 | 43.96972 | 22.98704 | 141° | 51km/h | 7604m | -18.0m/s | -25.2°C | 17.8% | 0hPa | 0V | 00:00:00 | 00:00:00 | 00:00:00 | |
| LZ4TU-5 | 2026-09-03 18:45:08 | 43.97021 | 22.98647 | 143° | 53km/h | 7693m | -17.5m/s | -25.7°C | 14.4% | 0hPa | 0V | 00:00:00 | 00:00:00 | 00:00:00 | |
| LZ4TU-5 | 2026-09-03 18:43:47 | 43.97862 | 22.97589 | 146° | 57km/h | 9226m | -19.9m/s | -38.1°C | 38.4% | 0hPa | 0V | 00:00:00 | 00:00:00 | 00:00:00 | |
| LZ4TU-5 | 2026-09-03 18:43:42 | 43.97920 | 22.97530 | 143° | 62km/h | 9327m | -19.4m/s | -38.9°C | 47.5% | 0hPa | 0V | 00:00:00 | 00:00:00 | 00:00:00 | |
| LZ4TU-5 | 2026-09-03 18:42:10 | 43.99281 | 22.96073 | 140° | 66km/h | 11275m | -21.9m/s | -53.6°C | 0% | 0hPa | 0V | 00:00:00 | 00:00:00 | 00:00:00 | |
| LZ4TU-5 | 2026-09-03 18:42:05 | 43.99335 | 22.95998 | 124° | 57km/h | 11373m | -21.7m/s | -53.0°C | 16.7% | 0hPa | 0V | 00:00:00 | 00:00:00 | 00:00:00 | |
| LZ4TU-5 | 2026-09-03 18:42:00 | 43.99371 | 22.95910 | 117° | 60km/h | 11485m | -22.2m/s | -53.2°C | 15.0% | 0hPa | 0V | 00:00:00 | 00:00:00 | 00:00:00 | |
| LZ4TU-5 | 2026-09-03 18:40:29 | 43.99908 | 22.93992 | 110° | 78km/h | 13684m | -27.3m/s | -54.3°C | 1.1% | 0hPa | 0V | 00:00:00 | 00:00:00 | 00:00:00 | |
| LZ4TU-5 | 2026-09-03 18:40:24 | 43.99941 | 22.93863 | 114° | 78km/h | 13817m | -27.7m/s | -54.3°C | 0.8% | 0hPa | 0V | 00:00:00 | 00:00:00 | 00:00:00 | |
| LZ4TU-5 | 2026-09-03 18:38:13 | 44.00290 | 22.91844 | 53° | 27km/h | 17891m | -35.4m/s | -54.8°C | 0.0% | 0hPa | 0V | 00:00:00 | 00:00:00 | 00:00:00 | |
| LZ4TU-5 | 2026-09-03 18:38:08 | 44.00264 | 22.91791 | 59° | 42km/h | 18063m | -35.1m/s | -55.6°C | 0% | 0hPa | 0V | 00:00:00 | 00:00:00 | 00:00:00 | |
| LZ4TU-5 | 2026-09-03 18:36:45 | 44.00364 | 22.91351 | 92° | 4km/h | 21313m | -43.3m/s | -54.9°C | 0.0% | 0hPa | 0V | 00:00:00 | 00:00:00 | 00:00:00 | |
| LZ4TU-5 | 2026-09-03 18:36:40 | 44.00368 | 22.91337 | 169° | 9km/h | 21527m | -45.8m/s | -54.4°C | 0.0% | 0hPa | 0V | 00:00:00 | 00:00:00 | 00:00:00 | |
| LZ4TU-5 | 2026-09-03 18:35:11 | 44.00600 | 22.91236 | 162° | 26km/h | 26107m | -58.5m/s | -49.0°C | 0.0% | 0hPa | 0V | 00:00:00 | 00:00:00 | 00:00:00 | |
| LZ4TU-5 | 2026-09-03 18:35:06 | 44.00629 | 22.91229 | 183° | 24km/h | 26407m | -59.8m/s | -48.2°C | 0.0% | 0hPa | 0V | 00:00:00 | 00:00:00 | 00:00:00 | |
| LZ4TU-5 | 2026-09-03 18:33:42 | 44.00660 | 22.91451 | 184° | 20km/h | 29767m | 5.0m/s | -44.5°C | 0.0% | 0hPa | 0V | 00:00:00 | 00:00:00 | 00:00:00 | |
| LZ4TU-5 | 2026-09-03 18:33:37 | 44.00655 | 22.91457 | 359° | 26km/h | 29729m | 8.0m/s | -44.4°C | 0.0% | 0hPa | 0V | 00:00:00 | 00:00:00 | 00:00:00 | |
| LZ4TU-5 | 2026-09-03 18:32:12 | 44.00656 | 22.91777 | 281° | 22km/h | 29120m | 7.7m/s | -45.6°C | 0.0% | 0hPa | 0V | 00:00:00 | 00:00:00 | 00:00:00 | |
| LZ4TU-5 | 2026-09-03 18:32:07 | 44.00657 | 22.91779 | 116° | 5km/h | 29082m | 6.8m/s | -46.1°C | 0.0% | 0hPa | 0V | 00:00:00 | 00:00:00 | 00:00:00 | |
| LZ4TU-5 | 2026-09-03 18:30:42 | 44.00695 | 22.91925 | 134° | 7km/h | 28470m | 8.3m/s | -46.3°C | 0.0% | 0hPa | 0V | 00:00:00 | 00:00:00 | 00:00:00 | |
| LZ4TU-5 | 2026-09-03 18:30:38 | 44.00701 | 22.91897 | 87° | 22km/h | 28444m | 7.0m/s | -46.2°C | 0.0% | 0hPa | 0V | 00:00:00 | 00:00:00 | 00:00:00 | |
| OM5KV | 2026-09-03 18:29:32 | 44.00574 | 22.92175 | 193° | 27km/h | 27985m | 8.3m/s | -47.0°C | 0.0% | 0hPa | 0V | 00:00:00 | 00:00:00 | 00:00:00 | |
| OM5KV | 2026-09-03 18:29:26 | 44.00574 | 22.92190 | 274° | 5km/h | 27942m | 9.2m/s | -47.0°C | 0.0% | 0hPa | 0V | 00:00:00 | 00:00:00 | 00:00:00 | |
| OM5KV | 2026-09-03 18:29:21 | 44.00592 | 22.92206 | 239° | 20km/h | 27908m | 3.3m/s | -47.0°C | 0.0% | 0hPa | 0V | 00:00:00 | 00:00:00 | 00:00:00 | |
| OM5KV | 2026-09-03 18:29:20 | 44.00594 | 22.92212 | 256° | 15km/h | 27903m | 5.4m/s | -47.0°C | 0.0% | 0hPa | 0V | 00:00:00 | 00:00:00 | 00:00:00 | |
| OM5KV | 2026-09-03 18:29:15 | 44.00576 | 22.92206 | 360° | 13km/h | 27867m | 7.4m/s | -47.3°C | 0.0% | 0hPa | 0V | 00:00:00 | 00:00:00 | 00:00:00 | |
| LZ4TU-5 | 2026-09-03 18:29:13 | 44.00575 | 22.92216 | 254° | 26km/h | 27851m | 7.9m/s | -47.3°C | 0.0% | 0hPa | 0V | 00:00:00 | 00:00:00 | 00:00:00 | |
| OM5KV | 2026-09-03 18:29:09 | 44.00590 | 22.92239 | 202° | 13km/h | 27826m | 6.2m/s | -47.3°C | 0.0% | 0hPa | 0V | 00:00:00 | 00:00:00 | 00:00:00 | |
| LZ4TU-5 | 2026-09-03 18:29:08 | 44.00591 | 22.92240 | 9° | 4km/h | 27818m | 7.4m/s | -47.3°C | 0.0% | 0hPa | 0V | 00:00:00 | 00:00:00 | 00:00:00 | |
| OM5KV | 2026-09-03 18:29:04 | 44.00567 | 22.92229 | 20° | 29km/h | 27789m | 3.1m/s | -47.2°C | 0.0% | 0hPa | 0V | 00:00:00 | 00:00:00 | 00:00:00 | |
| OM5KV | 2026-09-03 18:28:56 | 44.00566 | 22.92267 | 0° | 0km/h | 27733m | 8.2m/s | -47.3°C | 0.0% | 0hPa | 0V | 00:00:00 | 00:00:00 | 00:00:00 | |
| OM5KV | 2026-09-03 18:28:50 | 44.00537 | 22.92275 | 310° | 15km/h | 27692m | 5.8m/s | -47.3°C | 0.0% | 0hPa | 0V | 00:00:00 | 00:00:00 | 00:00:00 | |
| OM5KV | 2026-09-03 18:28:49 | 44.00535 | 22.92280 | 282° | 18km/h | 27686m | 5.9m/s | -47.3°C | 0.0% | 0hPa | 0V | 00:00:00 | 00:00:00 | 00:00:00 | |
| OM5KV | 2026-09-03 18:28:43 | 44.00529 | 22.92318 | 4° | 26km/h | 27641m | 7.9m/s | -47.2°C | 0.0% | 0hPa | 0V | 00:00:00 | 00:00:00 | 00:00:00 | |
| OM5KV | 2026-09-03 18:28:34 | 44.00507 | 22.92360 | 249° | 22km/h | 27578m | 6.1m/s | -47.2°C | 0.0% | 0hPa | 0V | 00:00:00 | 00:00:00 | 00:00:00 | |
| OM5KV | 2026-09-03 18:28:33 | 44.00508 | 22.92367 | 261° | 15km/h | 27573m | 4.1m/s | -47.2°C | 0.0% | 0hPa | 0V | 00:00:00 | 00:00:00 | 00:00:00 | |
| OM5KV | 2026-09-03 18:28:21 | 44.00497 | 22.92423 | 277° | 13km/h | 27488m | 8.4m/s | -47.2°C | 0.0% | 0hPa | 0V | 00:00:00 | 00:00:00 | 00:00:00 | |
| OM5KV | 2026-09-03 18:28:20 | 44.00495 | 22.92427 | 337° | 16km/h | 27480m | 8.1m/s | -47.1°C | 0.0% | 0hPa | 0V | 00:00:00 | 00:00:00 | 00:00:00 | |
| OM5KV | 2026-09-03 18:28:16 | 44.00477 | 22.92425 | 58° | 5km/h | 27454m | 6.3m/s | -47.1°C | 0.0% | 0hPa | 0V | 00:00:00 | 00:00:00 | 00:00:00 | |
| OM5KV | 2026-09-03 18:28:15 | 44.00477 | 22.92424 | 199° | 9km/h | 27446m | 8.9m/s | -47.1°C | 0.0% | 0hPa | 0V | 00:00:00 | 00:00:00 | 00:00:00 | |
| OM5KV | 2026-09-03 18:28:09 | 44.00512 | 22.92460 | 178° | 13km/h | 27404m | 5.1m/s | -47.2°C | 0.0% | 0hPa | 0V | 00:00:00 | 00:00:00 | 00:00:00 | |
| OM5KV | 2026-09-03 18:28:05 | 44.00511 | 22.92458 | 31° | 5km/h | 27375m | 6.7m/s | -47.2°C | 0.0% | 0hPa | 0V | 00:00:00 | 00:00:00 | 00:00:00 | |
| OM5KV | 2026-09-03 18:28:01 | 44.00522 | 22.92467 | 231° | 33km/h | 27348m | 9.4m/s | -47.2°C | 0.0% | 0hPa | 0V | 00:00:00 | 00:00:00 | 00:00:00 | |
| OM5KV | 2026-09-03 18:27:55 | 44.00533 | 22.92497 | 37° | 15km/h | 27307m | 8.7m/s | -47.3°C | 0.0% | 0hPa | 0V | 00:00:00 | 00:00:00 | 00:00:00 | |
| OM5KV | 2026-09-03 18:27:54 | 44.00531 | 22.92495 | 42° | 7km/h | 27301m | 6.2m/s | -47.3°C | 0.0% | 0hPa | 0V | 00:00:00 | 00:00:00 | 00:00:00 | |
| LZ4TU-5 | 2026-09-03 18:27:43 | 44.00548 | 22.92525 | 223° | 7km/h | 27228m | 5.4m/s | -47.2°C | 0.0% | 0hPa | 0V | 00:00:00 | 00:00:00 | 00:00:00 | |
| OM5KV | 2026-09-03 18:27:41 | 44.00549 | 22.92528 | 278° | 5km/h | 27214m | 6.9m/s | -47.2°C | 0.0% | 0hPa | 0V | 00:00:00 | 00:00:00 | 00:00:00 | |
| LZ4TU-5 | 2026-09-03 18:27:38 | 44.00556 | 22.92532 | 200° | 20km/h | 27193m | 5.9m/s | -47.3°C | 0.0% | 0hPa | 0V | 00:00:00 | 00:00:00 | 00:00:00 | |
| OM5KV | 2026-09-03 18:27:27 | 44.00595 | 22.92601 | 203° | 18km/h | 27121m | 8.6m/s | -47.8°C | 0.0% | 0hPa | 0V | 00:00:00 | 00:00:00 | 00:00:00 | |
| OM5KV | 2026-09-03 18:27:19 | 44.00637 | 22.92673 | 230° | 31km/h | 27064m | 5.6m/s | -47.9°C | 0.0% | 0hPa | 0V | 00:00:00 | 00:00:00 | 00:00:00 | |
| OM5KV | 2026-09-03 18:27:16 | 44.00649 | 22.92688 | 207° | 15km/h | 27044m | 6.4m/s | -48.0°C | 0.0% | 0hPa | 0V | 00:00:00 | 00:00:00 | 00:00:00 | |
| OM5KV | 2026-09-03 18:26:59 | 44.00742 | 22.92809 | 205° | 46km/h | 26930m | 4.3m/s | -49.0°C | 0.0% | 0hPa | 0V | 00:00:00 | 00:00:00 | 00:00:00 | |
| OM5KV | 2026-09-03 18:26:36 | 44.00884 | 22.92921 | 214° | 51km/h | 26774m | 7.7m/s | -49.4°C | 0.0% | 0hPa | 0V | 00:00:00 | 00:00:00 | 00:00:00 | |
| OM5KV | 2026-09-03 18:26:35 | 44.00895 | 22.92932 | 220° | 47km/h | 26767m | 6.7m/s | -49.4°C | 0.0% | 0hPa | 0V | 00:00:00 | 00:00:00 | 00:00:00 | |
| LZ4TU-5 | 2026-09-03 18:26:13 | 44.01077 | 22.92938 | 187° | 49km/h | 26616m | 7.1m/s | -50.0°C | 0.0% | 0hPa | 0V | 00:00:00 | 00:00:00 | 00:00:00 | |
| LZ4TU-5 | 2026-09-03 18:26:08 | 44.01119 | 22.92933 | 137° | 24km/h | 26580m | 7.7m/s | -49.8°C | 0.0% | 0hPa | 0V | 00:00:00 | 00:00:00 | 00:00:00 | |
| OM5KV | 2026-09-03 18:25:53 | 44.01208 | 22.92861 | 134° | 27km/h | 26482m | 5.4m/s | -49.6°C | 0.0% | 0hPa | 0V | 00:00:00 | 00:00:00 | 00:00:00 | |
| OM5KV | 2026-09-03 18:25:44 | 44.01256 | 22.92842 | 127° | 31km/h | 26422m | 9.2m/s | -49.9°C | 0.0% | 0hPa | 0V | 00:00:00 | 00:00:00 | 00:00:00 | |
| OM5KV | 2026-09-03 18:25:31 | 44.01336 | 22.92759 | 149° | 26km/h | 26337m | 4.6m/s | -50.9°C | 0.0% | 0hPa | 0V | 00:00:00 | 00:00:00 | 00:00:00 | |
| LZ4TU-5 | 2026-09-03 18:24:43 | 44.01498 | 22.92515 | 87° | 20km/h | 26014m | 5.7m/s | -50.6°C | 0.0% | 0hPa | 0V | 00:00:00 | 00:00:00 | 00:00:00 | |
| LZ4TU-5 | 2026-09-03 18:24:38 | 44.01508 | 22.92495 | 187° | 15km/h | 25981m | 7.4m/s | -50.6°C | 0.0% | 0hPa | 0V | 00:00:00 | 00:00:00 | 00:00:00 | |
| LZ4TU-5 | 2026-09-03 18:23:13 | 44.01933 | 22.92279 | 90° | 24km/h | 25394m | 8.7m/s | -50.6°C | 0.0% | 0hPa | 0V | 00:00:00 | 00:00:00 | 00:00:00 | |
| LZ4TU-5 | 2026-09-03 18:23:08 | 44.01938 | 22.92237 | 144° | 16km/h | 25360m | 7.8m/s | -50.7°C | 0% | 0hPa | 0V | 00:00:00 | 00:00:00 | 00:00:00 | |
| LZ4TU-5 | 2026-09-03 18:21:37 | 44.02011 | 22.92268 | 179° | 9km/h | 24746m | 7.6m/s | -51.5°C | 0.0% | 0hPa | 0V | 00:00:00 | 00:00:00 | 00:00:00 | |
| LZ4TU-5 | 2026-09-03 18:21:32 | 44.02020 | 22.92252 | 34° | 7km/h | 24714m | 5.6m/s | -51.4°C | 0.0% | 0hPa | 0V | 00:00:00 | 00:00:00 | 00:00:00 | |
| LZ4TU-5 | 2026-09-03 18:20:11 | 44.02101 | 22.92173 | 228° | 15km/h | 24167m | 4.7m/s | -52.4°C | 0.0% | 0hPa | 0V | 00:00:00 | 00:00:00 | 00:00:00 | |
| LZ4TU-5 | 2026-09-03 18:20:06 | 44.02107 | 22.92182 | 168° | 7km/h | 24143m | 5.9m/s | -52.8°C | 0.0% | 0hPa | 0V | 00:00:00 | 00:00:00 | 00:00:00 | |
| LZ4TU-5 | 2026-09-03 18:18:41 | 44.02243 | 22.92090 | 159° | 7km/h | 23586m | 3.5m/s | -53.7°C | 0.0% | 0hPa | 0V | 00:00:00 | 00:00:00 | 00:00:00 | |
| LZ4TU-5 | 2026-09-03 18:18:37 | 44.02262 | 22.92102 | 199° | 29km/h | 23556m | 8.6m/s | -53.6°C | 0.0% | 0hPa | 0V | 00:00:00 | 00:00:00 | 00:00:00 | |
| LZ4TU-5 | 2026-09-03 18:17:23 | 44.02529 | 22.91993 | 156° | 18km/h | 23079m | 5.7m/s | -52.9°C | 0.0% | 0hPa | 0V | 00:00:00 | 00:00:00 | 00:00:00 | |
| LZ4TU-5 | 2026-09-03 18:17:18 | 44.02536 | 22.91982 | 81° | 7km/h | 23047m | 7.2m/s | -52.7°C | 0.0% | 0hPa | 0V | 00:00:00 | 00:00:00 | 00:00:00 | |
| LZ4TU-5 | 2026-09-03 18:16:05 | 44.02495 | 22.92026 | 154° | 13km/h | 22573m | 6.5m/s | -53.0°C | 0.0% | 0hPa | 0V | 00:00:00 | 00:00:00 | 00:00:00 | |
| LZ4TU-5 | 2026-09-03 18:16:00 | 44.02509 | 22.92034 | 230° | 29km/h | 22544m | 4.3m/s | -52.9°C | 0.0% | 0hPa | 0V | 00:00:00 | 00:00:00 | 00:00:00 | |
| LZ4TU-5 | 2026-09-03 18:14:46 | 44.02673 | 22.91942 | 105° | 11km/h | 22071m | 6.6m/s | -54.9°C | 0.0% | 0hPa | 0V | 00:00:00 | 00:00:00 | 00:00:00 | |
| LZ4TU-5 | 2026-09-03 18:14:42 | 44.02663 | 22.91919 | 44° | 22km/h | 22047m | 5.4m/s | -54.9°C | 0% | 0hPa | 0V | 00:00:00 | 00:00:00 | 00:00:00 | |
| LZ4TU-5 | 2026-09-03 18:13:26 | 44.02643 | 22.91916 | 172° | 27km/h | 21563m | 6.2m/s | -55.1°C | 0.0% | 0hPa | 0V | 00:00:00 | 00:00:00 | 00:00:00 | |
| LZ4TU-5 | 2026-09-03 18:13:21 | 44.02656 | 22.91918 | 274° | 5km/h | 21531m | 8.7m/s | -54.9°C | 0.0% | 0hPa | 0V | 00:00:00 | 00:00:00 | 00:00:00 | |
| LZ4TU-5 | 2026-09-03 18:11:55 | 44.02537 | 22.91840 | 51° | 5km/h | 20991m | 3.1m/s | -55.0°C | 0.0% | 0hPa | 0V | 00:00:00 | 00:00:00 | 00:00:00 | |
| LZ4TU-5 | 2026-09-03 18:11:50 | 44.02540 | 22.91850 | 235° | 4km/h | 20957m | 5.4m/s | -55.0°C | 0.0% | 0hPa | 0V | 00:00:00 | 00:00:00 | 00:00:00 | |
| LZ4TU-5 | 2026-09-03 18:10:13 | 44.02714 | 22.91673 | 182° | 9km/h | 20340m | 4.2m/s | -55.7°C | 0.0% | 0hPa | 0V | 00:00:00 | 00:00:00 | 00:00:00 | |
| LZ4TU-5 | 2026-09-03 18:10:08 | 44.02720 | 22.91660 | 103° | 18km/h | 20307m | 6.6m/s | -55.7°C | 0.0% | 0hPa | 0V | 00:00:00 | 00:00:00 | 00:00:00 | |
| LZ4TU-5 | 2026-09-03 18:08:45 | 44.02949 | 22.91666 | 154° | 27km/h | 19794m | 6.1m/s | -54.4°C | 0.0% | 0hPa | 0V | 00:00:00 | 00:00:00 | 00:00:00 | |
| LZ4TU-5 | 2026-09-03 18:08:40 | 44.02992 | 22.91652 | 140° | 33km/h | 19763m | 6.0m/s | -54.8°C | 0.0% | 0hPa | 0V | 00:00:00 | 00:00:00 | 00:00:00 | |
| LZ4TU-5 | 2026-09-03 18:07:16 | 44.03257 | 22.90806 | 104° | 27km/h | 19230m | 5.8m/s | -57.1°C | 0.0% | 0hPa | 0V | 00:00:00 | 00:00:00 | 00:00:00 | |
| LZ4TU-5 | 2026-09-03 18:07:11 | 44.03263 | 22.90748 | 88° | 42km/h | 19195m | 5.9m/s | -57.0°C | 0.0% | 0hPa | 0V | 00:00:00 | 00:00:00 | 00:00:00 | |
| LZ4TU-5 | 2026-09-03 18:05:47 | 44.03290 | 22.89968 | 117° | 29km/h | 18641m | 8.1m/s | -54.9°C | 0.0% | 0hPa | 0V | 00:00:00 | 00:00:00 | 00:00:00 | |
| LZ4TU-5 | 2026-09-03 18:05:42 | 44.03301 | 22.89904 | 117° | 38km/h | 18612m | 5.6m/s | -55.0°C | 0.0% | 0hPa | 0V | 00:00:00 | 00:00:00 | 00:00:00 | |
| LZ4TU-5 | 2026-09-03 18:04:17 | 44.03081 | 22.88893 | 58° | 51km/h | 18080m | 6.0m/s | -55.1°C | 0.4% | 0hPa | 0V | 00:00:00 | 00:00:00 | 00:00:00 | |
| LZ4TU-5 | 2026-09-03 18:04:12 | 44.03050 | 22.88851 | 34° | 29km/h | 18046m | 5.6m/s | -55.0°C | 0% | 0hPa | 0V | 00:00:00 | 00:00:00 | 00:00:00 | |
| LZ4TU-5 | 2026-09-03 18:02:49 | 44.03111 | 22.88008 | 112° | 31km/h | 17484m | 6.0m/s | -56.0°C | 0.6% | 0hPa | 0V | 00:00:00 | 00:00:00 | 00:00:00 | |
| LZ4TU-5 | 2026-09-03 18:02:45 | 44.03129 | 22.87963 | 127° | 38km/h | 17459m | 7.3m/s | -56.1°C | 0.6% | 0hPa | 0V | 00:00:00 | 00:00:00 | 00:00:00 | |
| LZ4TU-5 | 2026-09-03 18:01:22 | 44.03184 | 22.87214 | 33° | 35km/h | 16936m | 5.7m/s | -55.9°C | 0.9% | 0hPa | 0V | 00:00:00 | 00:00:00 | 00:00:00 | |
| LZ4TU-5 | 2026-09-03 18:01:17 | 44.03199 | 22.87181 | 141° | 58km/h | 16896m | 5.9m/s | -55.9°C | 0.9% | 0hPa | 0V | 00:00:00 | 00:00:00 | 00:00:00 | |
| LZ4TU-5 | 2026-09-03 17:59:52 | 44.03542 | 22.85749 | 110° | 46km/h | 16396m | 4.8m/s | -55.7°C | 1.7% | 0hPa | 0V | 00:00:00 | 00:00:00 | 00:00:00 | |
| LZ4TU-5 | 2026-09-03 17:59:47 | 44.03556 | 22.85665 | 104° | 49km/h | 16368m | 5.6m/s | -55.5°C | 0% | 0hPa | 0V | 00:00:00 | 00:00:00 | 00:00:00 | |
| LZ4TU-5 | 2026-09-03 17:58:23 | 44.03755 | 22.84163 | 100° | 58km/h | 15890m | 6.1m/s | -57.1°C | 2.3% | 0hPa | 0V | 00:00:00 | 00:00:00 | 00:00:00 | |
| LZ4TU-5 | 2026-09-03 17:58:18 | 44.03778 | 22.84068 | 113° | 68km/h | 15857m | 7.7m/s | -56.9°C | 2.3% | 0hPa | 0V | 00:00:00 | 00:00:00 | 00:00:00 | |
| LZ4TU-5 | 2026-09-03 17:56:53 | 44.04200 | 22.82347 | 97° | 71km/h | 15353m | 6.0m/s | -57.4°C | 2.7% | 0hPa | 0V | 00:00:00 | 00:00:00 | 00:00:00 | |
| LZ4TU-5 | 2026-09-03 17:56:48 | 44.04223 | 22.82235 | 111° | 86km/h | 15324m | 5.3m/s | -57.6°C | 2.8% | 0hPa | 0V | 00:00:00 | 00:00:00 | 00:00:00 | |
| LZ4TU-5 | 2026-09-03 17:55:23 | 44.04120 | 22.80342 | 84° | 42km/h | 14823m | 5.1m/s | -56.2°C | 3.4% | 0hPa | 0V | 00:00:00 | 00:00:00 | 00:00:00 | |
| LZ4TU-5 | 2026-09-03 17:55:18 | 44.04113 | 22.80258 | 80° | 38km/h | 14792m | 5.6m/s | -56.0°C | 3.4% | 0hPa | 0V | 00:00:00 | 00:00:00 | 00:00:00 | |
| LZ4TU-5 | 2026-09-03 17:53:55 | 44.04368 | 22.79153 | 113° | 55km/h | 14284m | 5.9m/s | -55.2°C | 4.0% | 0hPa | 0V | 00:00:00 | 00:00:00 | 00:00:00 | |
| LZ4TU-5 | 2026-09-03 17:53:50 | 44.04397 | 22.79052 | 108° | 49km/h | 14255m | 5.1m/s | -55.0°C | 4.0% | 0hPa | 0V | 00:00:00 | 00:00:00 | 00:00:00 | |
| LZ4TU-5 | 2026-09-03 17:52:11 | 44.05056 | 22.77165 | 105° | 73km/h | 13629m | 5.8m/s | -54.1°C | 4.9% | 0hPa | 0V | 00:00:00 | 00:00:00 | 00:00:00 | |
| LZ4TU-5 | 2026-09-03 17:52:06 | 44.05079 | 22.77042 | 105° | 71km/h | 13600m | 6.5m/s | -53.9°C | 4.9% | 0hPa | 0V | 00:00:00 | 00:00:00 | 00:00:00 | |
| LZ4TU-5 | 2026-09-03 17:50:41 | 44.05440 | 22.75292 | 119° | 38km/h | 13116m | 6.0m/s | -51.8°C | 7.8% | 0hPa | 0V | 00:00:00 | 00:00:00 | 00:00:00 | |
| LZ4TU-5 | 2026-09-03 17:50:37 | 44.05462 | 22.75225 | 111° | 64km/h | 13094m | 6.5m/s | -51.6°C | 8.1% | 0hPa | 0V | 00:00:00 | 00:00:00 | 00:00:00 | |
| LZ4TU-5 | 2026-09-03 17:49:13 | 44.06106 | 22.73347 | 107° | 95km/h | 12573m | 4.8m/s | -54.1°C | 20.3% | 0hPa | 0V | 00:00:00 | 00:00:00 | 00:00:00 | |
| LZ4TU-5 | 2026-09-03 17:49:08 | 44.06129 | 22.73211 | 116° | 78km/h | 12545m | 4.2m/s | -54.1°C | 0% | 0hPa | 0V | 00:00:00 | 00:00:00 | 00:00:00 | |
| LZ4TU-5 | 2026-09-03 17:47:42 | 44.07006 | 22.71339 | 115° | 75km/h | 11974m | 7.0m/s | -54.0°C | 34.1% | 0hPa | 0V | 00:00:00 | 00:00:00 | 00:00:00 | |
| LZ4TU-5 | 2026-09-03 17:47:37 | 44.07069 | 22.71212 | 133° | 84km/h | 11943m | 8.5m/s | -54.2°C | 35.1% | 0hPa | 0V | 00:00:00 | 00:00:00 | 00:00:00 | |
| LZ4TU-5 | 2026-09-03 17:46:23 | 44.07840 | 22.69877 | 150° | 38km/h | 11457m | 5.7m/s | -54.9°C | 48.8% | 0hPa | 0V | 00:00:00 | 00:00:00 | 00:00:00 | |
| LZ4TU-5 | 2026-09-03 17:46:18 | 44.07925 | 22.69811 | 149° | 91km/h | 11425m | 3.9m/s | -54.6°C | 49.9% | 0hPa | 0V | 00:00:00 | 00:00:00 | 00:00:00 | |
| LZ4TU-5 | 2026-09-03 17:45:03 | 44.09308 | 22.68765 | 157° | 80km/h | 10918m | 5.5m/s | -53.2°C | 74.8% | 0hPa | 0V | 00:00:00 | 00:00:00 | 00:00:00 | |
| LZ4TU-5 | 2026-09-03 17:44:58 | 44.09396 | 22.68688 | 142° | 95km/h | 10891m | 7.2m/s | -52.9°C | 0% | 0hPa | 0V | 00:00:00 | 00:00:00 | 00:00:00 | |
| LZ4TU-5 | 2026-09-03 17:43:46 | 44.10868 | 22.67517 | 162° | 80km/h | 10386m | 7.3m/s | -48.6°C | 66.5% | 0hPa | 0V | 00:00:00 | 00:00:00 | 00:00:00 | |
| LZ4TU-5 | 2026-09-03 17:43:42 | 44.10962 | 22.67438 | 145° | 111km/h | 10353m | 5.3m/s | -48.4°C | 66.9% | 0hPa | 0V | 00:00:00 | 00:00:00 | 00:00:00 | |
| LZ4TU-5 | 2026-09-03 17:42:25 | 44.12462 | 22.66229 | 127° | 49km/h | 9825m | 5.8m/s | -44.5°C | 56.6% | 0hPa | 0V | 00:00:00 | 00:00:00 | 00:00:00 | |
| LZ4TU-5 | 2026-09-03 17:42:20 | 44.12529 | 22.66148 | 163° | 84km/h | 9790m | 10.5m/s | -44.2°C | 55.0% | 0hPa | 0V | 00:00:00 | 00:00:00 | 00:00:00 | |
| LZ4TU-5 | 2026-09-03 17:41:06 | 44.13680 | 22.65277 | 170° | 80km/h | 9305m | 5.4m/s | -39.4°C | 34.2% | 0hPa | 0V | 00:00:00 | 00:00:00 | 00:00:00 | |
| LZ4TU-5 | 2026-09-03 17:41:01 | 44.13762 | 22.65185 | 136° | 86km/h | 9272m | 4.2m/s | -39.1°C | 32.3% | 0hPa | 0V | 00:00:00 | 00:00:00 | 00:00:00 | |
| LZ4TU-5 | 2026-09-03 17:39:48 | 44.14771 | 22.64553 | 147° | 57km/h | 8780m | 9.4m/s | -34.5°C | 17.8% | 0hPa | 0V | 00:00:00 | 00:00:00 | 00:00:00 | |
| LZ4TU-5 | 2026-09-03 17:39:44 | 44.14808 | 22.64497 | 146° | 62km/h | 8757m | 5.8m/s | -34.7°C | 16.3% | 0hPa | 0V | 00:00:00 | 00:00:00 | 00:00:00 | |
| LZ4TU-5 | 2026-09-03 17:39:38 | 44.14886 | 22.64505 | 194° | 16km/h | 8714m | 7.4m/s | -34.6°C | 15.7% | 0hPa | 0V | 00:00:00 | 00:00:00 | 00:00:00 | |
| LZ4TU-5 | 2026-09-03 17:38:23 | 44.15586 | 22.64154 | 124° | 57km/h | 8267m | 8.0m/s | -31.7°C | 14.6% | 0hPa | 0V | 00:00:00 | 00:00:00 | 00:00:00 | |
| LZ4TU-5 | 2026-09-03 17:38:18 | 44.15627 | 22.64072 | 146° | 53km/h | 8238m | 5.7m/s | -31.5°C | 14.2% | 0hPa | 0V | 00:00:00 | 00:00:00 | 00:00:00 | |
| LZ4TU-5 | 2026-09-03 17:36:56 | 44.16255 | 22.63085 | 102° | 46km/h | 7773m | 7.0m/s | -27.4°C | 13.2% | 0hPa | 0V | 00:00:00 | 00:00:00 | 00:00:00 | |
| LZ4TU-5 | 2026-09-03 17:36:52 | 44.16269 | 22.63030 | 137° | 38km/h | 7749m | 7.5m/s | -27.2°C | 0% | 0hPa | 0V | 00:00:00 | 00:00:00 | 00:00:00 | |
| LZ4TU-5 | 2026-09-03 17:35:28 | 44.16938 | 22.62049 | 125° | 38km/h | 7241m | 6.4m/s | -23.7°C | 26.1% | 0hPa | 0V | 00:00:00 | 00:00:00 | 00:00:00 | |
| LZ4TU-5 | 2026-09-03 17:35:24 | 44.16956 | 22.62005 | 107° | 42km/h | 7216m | 7.9m/s | -23.5°C | 25.9% | 0hPa | 0V | 00:00:00 | 00:00:00 | 00:00:00 | |
| LZ4TU-5 | 2026-09-03 17:34:08 | 44.17649 | 22.61005 | 131° | 68km/h | 6764m | 3.7m/s | -20.1°C | 22.7% | 0hPa | 0V | 00:00:00 | 00:00:00 | 00:00:00 | |
| LZ4TU-5 | 2026-09-03 17:34:03 | 44.17686 | 22.60962 | 125° | 35km/h | 6734m | 6.7m/s | -19.9°C | 22.8% | 0hPa | 0V | 00:00:00 | 00:00:00 | 00:00:00 | |
| LZ4TU-5 | 2026-09-03 17:32:45 | 44.18282 | 22.59966 | 105° | 68km/h | 6250m | 4.4m/s | -17.8°C | 43.7% | 0hPa | 0V | 00:00:00 | 00:00:00 | 00:00:00 | |
| LZ4TU-5 | 2026-09-03 17:32:40 | 44.18295 | 22.59901 | 154° | 31km/h | 6224m | 5.8m/s | -17.5°C | 44.4% | 0hPa | 0V | 00:00:00 | 00:00:00 | 00:00:00 | |
| LZ4TU-5 | 2026-09-03 17:31:31 | 44.18731 | 22.58959 | 101° | 42km/h | 5840m | 3.5m/s | -15.0°C | 55.2% | 0hPa | 0V | 00:00:00 | 00:00:00 | 00:00:00 | |
| LZ4TU-5 | 2026-09-03 17:31:26 | 44.18782 | 22.58902 | 147° | 62km/h | 5810m | 3.0m/s | -14.8°C | 54.7% | 0hPa | 0V | 00:00:00 | 00:00:00 | 00:00:00 | |
| LZ4TU-5 | 2026-09-03 17:29:43 | 44.19555 | 22.57992 | 171° | 42km/h | 5254m | 6.0m/s | -10.7°C | 50.4% | 0hPa | 0V | 00:00:00 | 00:00:00 | 00:00:00 | |
| LZ4TU-5 | 2026-09-03 17:29:39 | 44.19581 | 22.57974 | 127° | 42km/h | 5230m | 7.8m/s | -10.5°C | 50.1% | 0hPa | 0V | 00:00:00 | 00:00:00 | 00:00:00 | |
| LZ4TU-5 | 2026-09-03 17:28:39 | 44.19890 | 22.57424 | 69° | 37km/h | 4881m | 4.3m/s | -8.8°C | 59.4% | 0hPa | 0V | 00:00:00 | 00:00:00 | 00:00:00 | |
| LZ4TU-5 | 2026-09-03 17:28:35 | 44.19893 | 22.57405 | 165° | 26km/h | 4853m | 7.5m/s | -8.6°C | 58.6% | 0hPa | 0V | 00:00:00 | 00:00:00 | 00:00:00 | |
| LZ4TU-5 | 2026-09-03 17:27:32 | 44.20117 | 22.56990 | 86° | 31km/h | 4471m | 5.7m/s | -5.3°C | 50.4% | 0hPa | 0V | 00:00:00 | 00:00:00 | 00:00:00 | |
| LZ4TU-5 | 2026-09-03 17:27:27 | 44.20142 | 22.56941 | 172° | 20km/h | 4439m | 5.1m/s | -4.9°C | 49.7% | 0hPa | 0V | 00:00:00 | 00:00:00 | 00:00:00 | |
| LZ4TU-5 | 2026-09-03 17:27:22 | 44.20149 | 22.56906 | 107° | 42km/h | 4412m | 4.4m/s | -4.7°C | 48.8% | 0hPa | 0V | 00:00:00 | 00:00:00 | 00:00:00 | |
| LZ4TU-5 | 2026-09-03 17:26:21 | 44.20338 | 22.56432 | 132° | 42km/h | 4034m | 5.8m/s | -2.5°C | 46.7% | 0hPa | 0V | 00:00:00 | 00:00:00 | 00:00:00 | |
| LZ4TU-5 | 2026-09-03 17:26:17 | 44.20365 | 22.56425 | 208° | 13km/h | 4013m | 4.3m/s | -2.3°C | 46.2% | 0hPa | 0V | 00:00:00 | 00:00:00 | 00:00:00 | |
| LZ4TU-5 | 2026-09-03 17:24:00 | 44.21121 | 22.55695 | 161° | 29km/h | 3247m | 4.1m/s | 1.8°C | 43.9% | 0hPa | 0V | 00:00:00 | 00:00:00 | 00:00:00 | |
| LZ4TU-5 | 2026-09-03 17:23:55 | 44.21137 | 22.55691 | 166° | 15km/h | 3215m | 6.0m/s | 1.9°C | 0% | 0hPa | 0V | 00:00:00 | 00:00:00 | 00:00:00 | |
| LZ4TU-5 | 2026-09-03 17:23:00 | 44.21242 | 22.55408 | 26° | 16km/h | 2927m | 6.1m/s | 4.0°C | 53.6% | 0hPa | 0V | 00:00:00 | 00:00:00 | 00:00:00 | |
| LZ4TU-5 | 2026-09-03 17:22:56 | 44.21248 | 22.55387 | 164° | 26km/h | 2906m | 5.1m/s | 4.3°C | 51.0% | 0hPa | 0V | 00:00:00 | 00:00:00 | 00:00:00 | |
| LZ4TU-5 | 2026-09-03 17:21:59 | 44.21394 | 22.55347 | 239° | 18km/h | 2586m | 5.4m/s | 6.8°C | 54.4% | 0hPa | 0V | 00:00:00 | 00:00:00 | 00:00:00 | |
| LZ4TU-5 | 2026-09-03 17:21:54 | 44.21414 | 22.55365 | 229° | 18km/h | 2559m | 4.8m/s | 7.0°C | 53.5% | 0hPa | 0V | 00:00:00 | 00:00:00 | 00:00:00 | |
| LZ4TU-5 | 2026-09-03 17:21:50 | 44.21429 | 22.55376 | 188° | 15km/h | 2536m | 7.6m/s | 7.3°C | 0% | 0hPa | 0V | 00:00:00 | 00:00:00 | 00:00:00 | |
| LZ4TU-5 | 2026-09-03 17:20:52 | 44.21611 | 22.55362 | 218° | 16km/h | 2198m | 6.1m/s | 10.4°C | 46.5% | 0hPa | 0V | 00:00:00 | 00:00:00 | 00:00:00 | |
| LZ4TU-5 | 2026-09-03 17:20:47 | 44.21638 | 22.55352 | 127° | 22km/h | 2170m | 5.8m/s | 10.6°C | 45.7% | 0hPa | 0V | 00:00:00 | 00:00:00 | 00:00:00 | |
| LZ4TU-5 | 2026-09-03 17:19:49 | 44.21934 | 22.55270 | 170° | 5km/h | 1838m | 5.3m/s | 13.7°C | 40.9% | 0hPa | 0V | 00:00:00 | 00:00:00 | 00:00:00 | |
| LZ4TU-5 | 2026-09-03 17:19:45 | 44.21949 | 22.55262 | 153° | 31km/h | 1817m | 4.6m/s | 14.0°C | 0% | 0hPa | 0V | 00:00:00 | 00:00:00 | 00:00:00 | |
| LZ4TU-5 | 2026-09-03 17:18:48 | 44.22268 | 22.55141 | 166° | 44km/h | 1494m | 5.2m/s | 16.9°C | 37.5% | 0hPa | 0V | 00:00:00 | 00:00:00 | 00:00:00 | |
| LZ4TU-5 | 2026-09-03 17:18:44 | 44.22301 | 22.55130 | 164° | 18km/h | 1473m | 5.6m/s | 17.1°C | 37.4% | 0hPa | 0V | 00:00:00 | 00:00:00 | 00:00:00 | |
| LZ4TU-5 | 2026-09-03 17:18:39 | 44.22329 | 22.55108 | 169° | 27km/h | 1442m | 6.4m/s | 17.4°C | 0% | 0hPa | 0V | 00:00:00 | 00:00:00 | 00:00:00 |